Time;durP1;ratioP1;P1;durP2;ratioP2;P2;SDS_P1;SDS_P2;PMS_P1;PMS_P2;Temp;Humidity;BMP_temperature;BMP_pressure;BME280_temperature;BME280_humidity;BME280_pressure;Samples;Min_cycle;Max_cycle;Signal;HPM_P1;HPM_P2
2023/06/26 00:01:56;;;;;;;;;;;;;;;26.13;74.94;97925.44;5056759;28;19936;-74
2023/06/26 00:04:22;;;;;;;;;;;;;;;26.04;75.60;97927.63;5050665;28;20313;-74
2023/06/26 00:06:49;;;;;;;;;;;;;;;26.06;75.68;97925.31;5062213;28;19928;-74
2023/06/26 00:09:15;;;;;;;;;;;;;;;25.97;75.95;97919.28;5062638;28;19935;-74
2023/06/26 00:11:43;;;;;;;;;;;;;;;25.93;76.83;97912.97;5061023;28;19932;-74
2023/06/26 00:14:09;;;;;;;;;;;;;;;25.86;77.50;97923.78;5065451;28;20091;-72
2023/06/26 00:16:36;;;;;;;;;;;;;;;25.69;79.00;97928.53;5066845;28;19924;-74
2023/06/26 00:19:02;;;;;;;;;;;;;;;25.66;79.74;97923.00;5045243;28;19925;-73
2023/06/26 00:21:29;;;;;;;;;;;;;;;25.65;80.06;97924.19;5063919;28;20025;-73
2023/06/26 00:23:55;;;;;;;;;;;;;;;25.67;79.98;97925.38;5060908;28;19928;-74
2023/06/26 00:26:21;;;;;;;;;;;;;;;25.68;80.11;97926.19;5062072;28;20384;-73
2023/06/26 00:28:49;;;;;;;;;;;;;;;25.65;80.24;97921.44;5060149;28;19946;-74
2023/06/26 00:31:15;;;;;;;;;;;;;;;25.65;80.10;97919.50;5055688;28;20012;-73
2023/06/26 00:33:42;;;;;;;;;;;;;;;25.82;78.89;97922.91;5054076;28;19928;-74
2023/06/26 00:36:08;;;;;;;;;;;;;;;25.87;78.14;97922.63;5058622;28;19930;-74
2023/06/26 00:38:35;;;;;;;;;;;;;;;25.89;77.15;97923.06;5064701;28;19972;-74
2023/06/26 00:41:01;;;;;;;;;;;;;;;25.87;76.96;97928.09;5063156;28;19928;-75
2023/06/26 00:43:28;;;;;;;;;;;;;;;25.84;77.19;97926.09;5058658;28;19934;-74
2023/06/26 00:45:56;;;;;;;;;;;;;;;25.80;77.69;97920.56;5062062;28;19929;-73
2023/06/26 00:48:22;;;;;;;;;;;;;;;25.85;77.78;97922.97;5064596;28;19925;-74
2023/06/26 00:50:48;;;;;;;;;;;;;;;25.43;80.59;97922.13;5069765;28;19937;-73
2023/06/26 00:53:15;;;;;;;;;;;;;;;25.42;80.88;97924.06;5063422;28;19935;-74
2023/06/26 00:55:41;;;;;;;;;;;;;;;25.49;80.76;97920.72;5065615;28;19929;-74
2023/06/26 00:58:17;;;;;;;;;;;;;;;;;;;;;
2023/06/26 01:03:05;;;;;;;;;;;;;;;25.64;79.99;97923.38;5095872;27;19927;-74
2023/06/26 01:05:32;;;;;;;;;;;;;;;25.61;80.03;97929.56;5081067;28;19931;-74
2023/06/26 01:07:59;;;;;;;;;;;;;;;25.55;80.51;97920.06;5081433;28;19924;-74
2023/06/26 01:10:27;;;;;;;;;;;;;;;25.30;82.77;97923.41;5080913;28;20356;-73
2023/06/26 01:12:53;;;;;;;;;;;;;;;25.26;84.09;97928.78;5081390;28;19982;-73
2023/06/26 01:15:20;;;;;;;;;;;;;;;25.27;84.05;97922.19;5080887;28;19999;-74
2023/06/26 01:17:47;;;;;;;;;;;;;;;25.23;83.95;97913.91;5080781;28;20409;-73
2023/06/26 01:20:15;;;;;;;;;;;;;;;25.28;83.78;97912.06;5086273;28;20398;-74
2023/06/26 01:22:46;;;;;;;;;;;;;;;25.22;83.17;97911.56;5081937;28;19929;-73
2023/06/26 01:25:17;;;;;;;;;;;;;;;25.10;83.66;97911.66;5080826;28;19928;-73
2023/06/26 01:27:46;;;;;;;;;;;;;;;25.05;83.75;97907.28;5080562;28;19943;-74
2023/06/26 01:30:13;;;;;;;;;;;;;;;24.97;83.88;97905.56;5080438;28;19928;-73
2023/06/26 01:32:40;;;;;;;;;;;;;;;24.90;84.18;97913.56;5079361;28;20019;-74
2023/06/26 01:35:07;;;;;;;;;;;;;;;24.98;83.54;97907.13;5080764;28;20420;-74
2023/06/26 01:37:34;;;;;;;;;;;;;;;25.01;82.88;97906.41;5081117;28;19940;-74
2023/06/26 01:40:00;;;;;;;;;;;;;;;25.04;82.51;97907.63;5075947;28;19939;-74
2023/06/26 01:42:27;;;;;;;;;;;;;;;24.98;82.93;97903.59;5080951;28;20003;-74
2023/06/26 01:44:56;;;;;;;;;;;;;;;24.92;83.11;97902.28;5080061;28;19929;-74
2023/06/26 01:47:25;;;;;;;;;;;;;;;24.92;83.25;97908.53;5080184;28;19924;-73
2023/06/26 01:49:55;;;;;;;;;;;;;;;24.86;83.02;97907.22;5078256;28;19931;-74
2023/06/26 01:52:22;;;;;;;;;;;;;;;24.98;82.47;97911.78;5083497;28;19950;-74
2023/06/26 01:54:53;;;;;;;;;;;;;;;24.91;82.42;97908.91;5079763;28;20062;-74
2023/06/26 01:57:22;;;;;;;;;;;;;;;24.80;83.28;97910.56;5079836;28;19928;-73
2023/06/26 01:59:49;;;;;;;;;;;;;;;24.71;83.84;97905.31;5069316;28;20411;-74
2023/06/26 02:02:16;;;;;;;;;;;;;;;24.73;83.91;97903.78;5093885;28;19928;-74
2023/06/26 02:04:43;;;;;;;;;;;;;;;24.77;83.84;97905.81;5100111;28;19934;-74
2023/06/26 02:07:10;;;;;;;;;;;;;;;24.73;83.67;97910.41;5081904;28;19924;-73
2023/06/26 02:09:36;;;;;;;;;;;;;;;24.60;84.27;97901.53;5081476;28;19977;-73
2023/06/26 02:12:03;;;;;;;;;;;;;;;24.60;85.02;97913.22;5116009;28;19986;-73
2023/06/26 02:14:29;;;;;;;;;;;;;;;24.61;84.79;97916.75;5085935;28;20015;-73
2023/06/26 02:16:55;;;;;;;;;;;;;;;24.53;85.02;97918.53;5086674;28;19924;-74
2023/06/26 02:19:24;;;;;;;;;;;;;;;24.61;85.06;97912.09;5086209;28;20012;-74
2023/06/26 02:21:51;;;;;;;;;;;;;;;24.64;84.03;97914.13;5089722;28;20031;-73
2023/06/26 02:24:17;;;;;;;;;;;;;;;24.53;84.91;97912.28;5086573;28;19924;-76
2023/06/26 02:26:43;;;;;;;;;;;;;;;24.35;86.21;97908.34;5075921;28;19928;-74
2023/06/26 02:29:10;;;;;;;;;;;;;;;24.36;86.41;97913.44;5082270;28;19924;-74
2023/06/26 02:31:36;;;;;;;;;;;;;;;24.52;85.58;97906.03;5061020;28;19935;-74
2023/06/26 02:34:02;;;;;;;;;;;;;;;24.46;85.24;97904.72;5078255;28;19924;-74
2023/06/26 02:36:30;;;;;;;;;;;;;;;24.36;85.98;97907.97;5077713;28;19924;-74
2023/06/26 02:38:57;;;;;;;;;;;;;;;24.35;86.24;97903.69;5075698;28;20015;-74
2023/06/26 02:41:23;;;;;;;;;;;;;;;24.23;87.41;97906.50;5082571;28;19924;-74
2023/06/26 02:43:49;;;;;;;;;;;;;;;24.24;87.63;97907.25;5076835;28;19934;-74
2023/06/26 02:46:16;;;;;;;;;;;;;;;24.33;87.17;97910.59;5083089;28;19924;-74
2023/06/26 02:48:42;;;;;;;;;;;;;;;24.30;87.06;97906.66;5065420;28;19940;-73
2023/06/26 02:51:08;;;;;;;;;;;;;;;24.34;86.55;97910.28;5064377;28;19928;-74
2023/06/26 02:53:36;;;;;;;;;;;;;;;24.32;86.44;97915.28;5076587;28;19932;-74
2023/06/26 02:56:03;;;;;;;;;;;;;;;24.20;87.29;97914.59;5081497;28;20005;-73
2023/06/26 02:58:29;;;;;;;;;;;;;;;24.23;87.03;97914.69;5076720;28;19936;-74
2023/06/26 03:00:56;;;;;;;;;;;;;;;24.25;86.86;97915.13;5077463;28;20318;-73
2023/06/26 03:03:22;;;;;;;;;;;;;;;24.23;86.98;97914.69;5077385;28;19929;-73
2023/06/26 03:05:49;;;;;;;;;;;;;;;24.36;86.12;97909.91;5075044;28;20023;-73
2023/06/26 03:08:16;;;;;;;;;;;;;;;24.34;86.36;97909.47;5080385;28;19928;-74
2023/06/26 03:10:43;;;;;;;;;;;;;;;24.41;85.95;97909.66;5084510;28;20315;-74
2023/06/26 03:13:10;;;;;;;;;;;;;;;24.44;85.76;97904.28;5072251;28;19934;-74
2023/06/26 03:15:36;;;;;;;;;;;;;;;24.30;86.93;97909.38;5075578;28;19931;-73
2023/06/26 03:18:02;;;;;;;;;;;;;;;24.31;87.41;97910.97;5089824;28;19932;-73
2023/06/26 03:20:29;;;;;;;;;;;;;;;24.32;87.18;97912.56;5067273;28;19923;-74
2023/06/26 03:22:55;;;;;;;;;;;;;;;24.33;87.12;97911.41;5070476;28;20039;-74
2023/06/26 03:25:21;;;;;;;;;;;;;;;24.14;88.62;97922.22;5076136;28;19954;-73
2023/06/26 03:27:49;;;;;;;;;;;;;;;24.14;89.28;97919.50;5075725;28;20395;-74
2023/06/26 03:30:16;;;;;;;;;;;;;;;24.23;88.68;97913.88;5074841;28;19924;-75
2023/06/26 03:32:43;;;;;;;;;;;;;;;24.28;87.91;97917.13;5065201;28;20031;-74
2023/06/26 03:35:09;;;;;;;;;;;;;;;24.30;87.66;97917.56;5067054;28;20667;-74
2023/06/26 03:37:36;;;;;;;;;;;;;;;24.33;87.81;97913.34;5067223;28;20502;-74
2023/06/26 03:40:04;;;;;;;;;;;;;;;24.33;87.57;97921.53;5101403;28;20400;-74
2023/06/26 03:42:30;;;;;;;;;;;;;;;24.09;89.82;97920.53;5078868;28;19951;-73
2023/06/26 03:44:58;;;;;;;;;;;;;;;24.08;90.61;97915.41;5076506;28;19928;-74
2023/06/26 03:47:24;;;;;;;;;;;;;;;24.04;91.15;97918.06;5068400;28;20411;-73
2023/06/26 03:49:51;;;;;;;;;;;;;;;24.07;91.00;97932.94;5077786;28;19923;-74
2023/06/26 03:52:17;;;;;;;;;;;;;;;24.14;90.05;97920.28;5084384;28;19988;-74
2023/06/26 03:54:43;;;;;;;;;;;;;;;24.25;89.37;97917.03;5069892;28;20315;-74
2023/06/26 03:57:10;;;;;;;;;;;;;;;24.26;89.24;97922.16;5076236;28;19934;-74
2023/06/26 03:59:37;;;;;;;;;;;;;;;24.17;89.44;97913.34;5068930;28;19929;-74
2023/06/26 04:02:04;;;;;;;;;;;;;;;24.04;90.34;97917.28;5075711;28;19931;-73
2023/06/26 04:04:31;;;;;;;;;;;;;;;23.95;91.04;97914.69;5067780;28;19928;-74
2023/06/26 04:06:59;;;;;;;;;;;;;;;24.02;90.95;97919.53;5075823;28;19928;-72
2023/06/26 04:09:25;;;;;;;;;;;;;;;23.92;92.54;97920.06;5066004;28;19928;-74
2023/06/26 04:11:51;;;;;;;;;;;;;;;23.98;92.73;97926.84;5076202;28;19930;-73
2023/06/26 04:14:18;;;;;;;;;;;;;;;24.01;92.47;97934.34;5084623;28;19928;-73
2023/06/26 04:16:45;;;;;;;;;;;;;;;24.04;91.95;97918.06;5069192;28;20031;-73
2023/06/26 04:19:13;;;;;;;;;;;;;;;24.19;90.53;97919.25;5066194;28;20665;-73
2023/06/26 04:21:39;;;;;;;;;;;;;;;24.05;90.41;97922.34;5080507;28;19934;-73
2023/06/26 04:24:06;;;;;;;;;;;;;;;24.18;89.18;97920.38;5075848;28;19935;-74
2023/06/26 04:26:32;;;;;;;;;;;;;;;24.14;89.51;97925.75;5074690;28;19946;-73
2023/06/26 04:28:59;;;;;;;;;;;;;;;24.22;89.35;97918.53;5070470;28;19924;-75
2023/06/26 04:31:26;;;;;;;;;;;;;;;24.15;90.15;97913.69;5075822;28;19924;-75
2023/06/26 04:33:54;;;;;;;;;;;;;;;23.97;91.54;97917.06;5068951;28;19930;-74
2023/06/26 04:36:22;;;;;;;;;;;;;;;23.55;95.21;97906.59;5075977;28;19928;-74
2023/06/26 04:38:49;;;;;;;;;;;;;;;23.44;96.24;97910.16;5054760;28;19924;-74
2023/06/26 04:41:16;;;;;;;;;;;;;;;23.21;99.92;97907.13;5061251;28;19955;-74
2023/06/26 04:43:42;;;;;;;;;;;;;;;23.10;100.00;97911.50;5077353;28;19935;-74
2023/06/26 04:46:08;;;;;;;;;;;;;;;23.40;98.72;97914.72;5079822;28;19930;-74
2023/06/26 04:48:35;;;;;;;;;;;;;;;23.41;99.68;97913.59;5074219;28;19928;-74
2023/06/26 04:51:01;;;;;;;;;;;;;;;23.34;100.00;97910.63;5056670;28;19929;-75
2023/06/26 04:53:39;;;;;;;;;;;;;;;;;;;;;
2023/06/26 05:15:49;;;;;;;;;;;;;;;21.35;100.00;97914.16;5120185;27;19991;-72
2023/06/26 05:18:16;;;;;;;;;;;;;;;21.23;100.00;97914.13;5120394;28;19946;-72
2023/06/26 05:20:42;;;;;;;;;;;;;;;21.22;100.00;97917.97;5113738;28;19963;-71
2023/06/26 05:23:11;;;;;;;;;;;;;;;21.20;100.00;97916.72;5120281;28;19975;-71
2023/06/26 05:25:38;;;;;;;;;;;;;;;20.95;100.00;97910.31;5116784;28;19924;-71
2023/06/26 05:28:05;;;;;;;;;;;;;;;20.66;100.00;97913.84;5116394;28;19924;-71
2023/06/26 05:30:34;;;;;;;;;;;;;;;20.68;100.00;97916.22;5117326;28;19931;-71
2023/06/26 05:33:02;;;;;;;;;;;;;;;21.18;100.00;97919.75;5118570;28;19947;-71
2023/06/26 05:35:29;;;;;;;;;;;;;;;21.40;100.00;97915.91;5119131;28;19928;-72
2023/06/26 05:37:56;;;;;;;;;;;;;;;21.82;100.00;97906.53;5116384;28;19959;-72
2023/06/26 05:40:22;;;;;;;;;;;;;;;22.10;100.00;97911.41;5116317;28;19936;-72
2023/06/26 05:42:49;;;;;;;;;;;;;;;22.03;100.00;97903.81;5106931;28;19928;-72
2023/06/26 05:45:15;;;;;;;;;;;;;;;21.88;100.00;97909.84;5115165;28;19970;-72
2023/06/26 05:47:42;;;;;;;;;;;;;;;21.92;100.00;97910.78;5118703;28;19924;-72
2023/06/26 05:50:10;;;;;;;;;;;;;;;22.09;100.00;97910.59;5114036;28;19929;-72
2023/06/26 05:52:38;;;;;;;;;;;;;;;22.46;100.00;97909.50;5118071;28;19948;-72
2023/06/26 05:55:05;;;;;;;;;;;;;;;22.67;100.00;97906.69;5119671;28;19970;-72
2023/06/26 05:57:32;;;;;;;;;;;;;;;22.70;100.00;97905.22;5118471;28;19950;-72
2023/06/26 05:59:58;;;;;;;;;;;;;;;22.96;100.00;97900.19;5115979;28;19954;-72
2023/06/26 06:02:25;;;;;;;;;;;;;;;23.12;100.00;97906.47;5116246;28;19924;-72
2023/06/26 06:04:51;;;;;;;;;;;;;;;23.23;100.00;97904.88;5119575;28;20304;-71
2023/06/26 06:07:19;;;;;;;;;;;;;;;23.04;100.00;97910.16;5118056;28;19924;-72
2023/06/26 06:09:45;;;;;;;;;;;;;;;22.64;100.00;97912.78;5116329;28;19956;-72
2023/06/26 06:12:12;;;;;;;;;;;;;;;22.52;100.00;97918.22;5115965;28;19935;-72
2023/06/26 06:14:38;;;;;;;;;;;;;;;22.56;100.00;97919.16;5117767;28;19935;-72
2023/06/26 06:17:04;;;;;;;;;;;;;;;22.59;100.00;97913.78;5119174;28;20455;-72
2023/06/26 06:19:31;;;;;;;;;;;;;;;22.55;100.00;97906.66;5118566;28;19924;-72
2023/06/26 06:21:57;;;;;;;;;;;;;;;22.81;100.00;97906.34;5115784;28;19948;-72
2023/06/26 06:24:25;;;;;;;;;;;;;;;22.92;100.00;97905.53;5115913;28;19963;-72
2023/06/26 06:26:51;;;;;;;;;;;;;;;23.11;100.00;97897.53;5095380;28;19924;-72
2023/06/26 06:29:19;;;;;;;;;;;;;;;23.21;100.00;97906.38;5101985;28;19991;-72
2023/06/26 06:31:46;;;;;;;;;;;;;;;23.19;100.00;97900.44;5104794;28;20003;-72
2023/06/26 06:34:13;;;;;;;;;;;;;;;23.28;100.00;97909.28;5105234;28;19963;-72
2023/06/26 06:36:39;;;;;;;;;;;;;;;23.45;100.00;97918.00;5103085;28;19936;-72
2023/06/26 06:39:05;;;;;;;;;;;;;;;23.48;100.00;97906.41;5100527;28;20606;-73
2023/06/26 06:41:33;;;;;;;;;;;;;;;23.72;100.00;97904.72;5102694;28;19936;-73
2023/06/26 06:43:59;;;;;;;;;;;;;;;23.84;99.81;97908.16;5104949;28;19924;-73
2023/06/26 06:46:26;;;;;;;;;;;;;;;23.83;100.00;97912.03;5104779;28;19974;-73
2023/06/26 06:48:53;;;;;;;;;;;;;;;23.83;100.00;97906.56;5100522;28;19925;-73
2023/06/26 06:51:19;;;;;;;;;;;;;;;23.86;100.00;97905.09;5102777;28;19996;-72
2023/06/26 06:53:46;;;;;;;;;;;;;;;23.94;98.81;97902.22;5101760;28;19925;-73
2023/06/26 06:56:12;;;;;;;;;;;;;;;23.92;96.34;97903.72;5101208;28;19925;-73
2023/06/26 06:58:42;;;;;;;;;;;;;;;24.18;96.42;97902.06;5103305;28;19929;-73
2023/06/26 07:01:09;;;;;;;;;;;;;;;24.35;93.94;97900.94;5104818;28;19931;-73
2023/06/26 07:03:35;;;;;;;;;;;;;;;24.35;91.07;97900.94;5103073;28;19924;-73
2023/06/26 07:06:03;;;;;;;;;;;;;;;24.40;87.15;97900.66;5099812;28;19924;-72
2023/06/26 07:08:29;;;;;;;;;;;;;;;24.32;88.05;97898.13;5101873;28;19928;-72
2023/06/26 07:10:56;;;;;;;;;;;;;;;24.34;89.33;97901.28;5104717;28;19930;-73
2023/06/26 07:13:22;;;;;;;;;;;;;;;24.33;90.75;97899.69;5104620;28;19946;-73
2023/06/26 07:15:50;;;;;;;;;;;;;;;24.23;90.05;97887.38;5101013;28;19929;-73
2023/06/26 07:18:17;;;;;;;;;;;;;;;24.16;91.50;97889.94;5101029;28;19924;-72
2023/06/26 07:20:43;;;;;;;;;;;;;;;24.23;92.19;97892.84;5099856;28;19987;-72
2023/06/26 07:23:09;;;;;;;;;;;;;;;24.30;89.01;97886.75;5083421;28;19993;-72
2023/06/26 07:25:36;;;;;;;;;;;;;;;24.59;85.50;97881.63;5098179;28;19924;-72
2023/06/26 07:28:02;;;;;;;;;;;;;;;24.45;84.19;97886.75;5096422;28;19965;-74
2023/06/26 07:30:29;;;;;;;;;;;;;;;24.32;82.99;97887.22;5083595;28;19924;-72
2023/06/26 07:32:56;;;;;;;;;;;;;;;24.46;86.57;97890.25;5103054;28;19925;-72
2023/06/26 07:35:23;;;;;;;;;;;;;;;24.41;84.79;97890.53;5104014;28;19966;-72
2023/06/26 07:37:49;;;;;;;;;;;;;;;24.40;88.09;97897.13;5091302;28;19960;-72
2023/06/26 07:40:17;;;;;;;;;;;;;;;24.44;86.59;97895.28;5100539;28;20019;-72
2023/06/26 07:42:43;;;;;;;;;;;;;;;24.62;86.52;97882.84;5103167;28;19931;-73
2023/06/26 07:45:12;;;;;;;;;;;;;;;24.76;86.24;97888.63;5104116;28;19962;-72
2023/06/26 07:47:38;;;;;;;;;;;;;;;24.75;83.99;97880.81;5101949;28;19924;-72
2023/06/26 07:50:06;;;;;;;;;;;;;;;24.86;84.07;97887.31;5100585;28;19924;-72
2023/06/26 07:52:32;;;;;;;;;;;;;;;25.13;83.23;97886.34;5101335;28;19974;-72
2023/06/26 07:54:59;;;;;;;;;;;;;;;25.33;82.34;97887.16;5103798;28;19970;-72
2023/06/26 07:57:25;;;;;;;;;;;;;;;25.36;82.45;97884.50;5103726;28;19951;-72
2023/06/26 07:59:52;;;;;;;;;;;;;;;25.21;80.60;97888.09;5100416;28;19964;-72
2023/06/26 08:02:18;;;;;;;;;;;;;;;24.95;83.50;97875.03;5099949;28;20260;-72
2023/06/26 08:04:45;;;;;;;;;;;;;;;24.94;83.64;97875.41;5103133;28;19956;-73
2023/06/26 08:07:13;;;;;;;;;;;;;;;25.21;83.67;97874.44;5103933;28;19925;-74
2023/06/26 08:09:40;;;;;;;;;;;;;;;25.21;82.16;97877.97;5101641;28;19924;-73
2023/06/26 08:12:07;;;;;;;;;;;;;;;25.15;82.99;97879.41;5100045;28;20398;-73
2023/06/26 08:14:33;;;;;;;;;;;;;;;25.33;83.26;97868.81;5101291;28;19950;-73
2023/06/26 08:17:00;;;;;;;;;;;;;;;25.38;80.92;97878.69;5103545;28;20401;-73
2023/06/26 08:19:26;;;;;;;;;;;;;;;25.44;80.85;97864.34;5103292;28;19924;-72
2023/06/26 08:21:53;;;;;;;;;;;;;;;25.44;80.66;97871.78;5099896;28;19948;-73
2023/06/26 08:24:20;;;;;;;;;;;;;;;25.49;81.77;97864.09;5099915;28;19931;-73
2023/06/26 08:26:47;;;;;;;;;;;;;;;25.63;79.58;97864.34;5103016;28;19924;-70
2023/06/26 08:29:14;;;;;;;;;;;;;;;25.63;79.56;97867.09;5103333;28;19975;-73
2023/06/26 08:31:40;;;;;;;;;;;;;;;25.62;80.45;97865.53;5101117;28;19924;-73
2023/06/26 08:34:07;;;;;;;;;;;;;;;25.86;80.24;97860.84;5098200;28;20036;-73
2023/06/26 08:36:33;;;;;;;;;;;;;;;25.89;77.28;97854.66;5100552;28;19970;-73
2023/06/26 08:39:00;;;;;;;;;;;;;;;25.99;78.05;97859.53;5103082;28;19923;-73
2023/06/26 08:41:28;;;;;;;;;;;;;;;25.91;78.25;97855.06;5102638;28;19980;-72
2023/06/26 08:43:54;;;;;;;;;;;;;;;25.88;77.77;97844.84;5099574;28;19924;-73
2023/06/26 08:46:20;;;;;;;;;;;;;;;25.90;76.79;97851.56;5099367;28;19963;-73
2023/06/26 08:48:49;;;;;;;;;;;;;;;26.09;76.32;97856.19;5102286;28;19924;-73
2023/06/26 08:51:17;;;;;;;;;;;;;;;26.12;75.79;97844.50;5102630;28;19924;-72
2023/06/26 08:53:46;;;;;;;;;;;;;;;26.44;75.23;97851.31;5100289;28;19924;-72
2023/06/26 08:56:15;;;;;;;;;;;;;;;26.66;74.03;97847.72;5099513;28;19987;-73
2023/06/26 08:58:43;;;;;;;;;;;;;;;26.57;73.14;97849.94;5101699;28;19996;-72
2023/06/26 09:01:10;;;;;;;;;;;;;;;26.76;73.05;97847.09;5102974;28;19956;-73
2023/06/26 09:03:36;;;;;;;;;;;;;;;26.78;70.71;97843.97;5100984;28;20010;-73
2023/06/26 09:06:03;;;;;;;;;;;;;;;26.71;67.65;97839.19;5099086;28;19929;-73
2023/06/26 09:08:29;;;;;;;;;;;;;;;26.89;69.35;97842.22;5099898;28;19963;-73
2023/06/26 09:10:56;;;;;;;;;;;;;;;26.89;70.49;97836.72;5103012;28;19924;-74
2023/06/26 09:13:22;;;;;;;;;;;;;;;26.89;69.45;97827.72;5102538;28;19955;-73
2023/06/26 09:15:50;;;;;;;;;;;;;;;27.01;68.71;97830.22;5099128;28;19929;-73
2023/06/26 09:18:18;;;;;;;;;;;;;;;26.98;67.63;97836.44;5099149;28;19962;-73
2023/06/26 09:20:45;;;;;;;;;;;;;;;27.04;67.75;97829.47;5100271;28;19928;-73
2023/06/26 09:23:11;;;;;;;;;;;;;;;27.19;67.74;97823.00;5102225;28;19928;-73
2023/06/26 09:25:39;;;;;;;;;;;;;;;27.25;67.40;97813.28;5100390;28;19924;-73
2023/06/26 09:28:05;;;;;;;;;;;;;;;27.26;66.46;97817.59;5098664;28;19947;-73
2023/06/26 09:30:33;;;;;;;;;;;;;;;27.22;66.89;97808.53;5100433;28;19929;-73
2023/06/26 09:33:13;;;;;;;;;;;;;;;27.40;66.47;97808.72;5101999;28;19947;-73
2023/06/26 09:35:39;;;;;;;;;;;;;;;27.49;66.78;97807.31;5101075;28;20305;-73
2023/06/26 09:38:06;;;;;;;;;;;;;;;27.52;63.31;97811.25;5098556;28;20316;-73
2023/06/26 09:40:34;;;;;;;;;;;;;;;27.58;62.88;97801.50;5100752;28;19928;-73
2023/06/26 09:43:03;;;;;;;;;;;;;;;27.57;63.75;97799.94;5103041;28;19931;-73
2023/06/26 09:45:29;;;;;;;;;;;;;;;27.64;64.09;97795.31;5101923;28;19920;-73
2023/06/26 09:48:00;;;;;;;;;;;;;;;27.78;60.94;97797.41;5099472;28;19975;-73
2023/06/26 09:50:27;;;;;;;;;;;;;;;27.94;60.86;97797.94;5099856;28;19936;-74
2023/06/26 09:52:54;;;;;;;;;;;;;;;28.15;61.18;97794.59;5101925;28;19955;-73
2023/06/26 09:55:22;;;;;;;;;;;;;;;28.32;60.08;97785.69;5101247;28;19924;-73
2023/06/26 09:57:48;;;;;;;;;;;;;;;28.36;59.04;97786.50;5098801;28;19925;-73
2023/06/26 10:00:16;;;;;;;;;;;;;;;28.34;58.29;97788.84;5098574;28;19967;-73
2023/06/26 10:02:42;;;;;;;;;;;;;;;28.32;56.25;97778.25;5103794;28;19931;-73
2023/06/26 10:05:08;;;;;;;;;;;;;;;28.18;57.80;97780.09;5106005;28;19933;-73
2023/06/26 10:07:38;;;;;;;;;;;;;;;28.39;57.77;97783.00;5104635;28;19983;-73
2023/06/26 10:10:06;;;;;;;;;;;;;;;28.46;56.94;97779.50;5102573;28;19978;-73
2023/06/26 10:12:33;;;;;;;;;;;;;;;28.65;56.93;97763.56;5103402;28;19964;-73
2023/06/26 10:15:00;;;;;;;;;;;;;;;28.77;56.87;97771.47;5104614;28;20023;-74
2023/06/26 10:17:29;;;;;;;;;;;;;;;28.71;56.29;97770.28;5105393;28;19955;-73
2023/06/26 10:19:56;;;;;;;;;;;;;;;28.39;57.97;97763.78;5101061;28;19984;-74
2023/06/26 10:22:25;;;;;;;;;;;;;;;28.46;58.41;97763.81;5102234;28;19924;-73
2023/06/26 10:24:56;;;;;;;;;;;;;;;28.65;56.98;97763.56;5093932;28;19936;-73
2023/06/26 10:27:23;;;;;;;;;;;;;;;28.72;54.95;97760.84;5102016;28;19950;-74
2023/06/26 10:29:51;;;;;;;;;;;;;;;28.85;55.74;97762.06;5093627;28;19924;-74
2023/06/26 10:32:18;;;;;;;;;;;;;;;28.92;53.99;97758.56;5101995;28;19924;-74
2023/06/26 10:34:45;;;;;;;;;;;;;;;28.83;54.64;97752.66;5105107;28;19928;-73
2023/06/26 10:37:13;;;;;;;;;;;;;;;29.14;51.55;97749.22;5106202;28;19924;-74
2023/06/26 10:39:50;;;;;;;;;;;;;;;29.29;50.17;97742.59;5104626;28;19920;-74
2023/06/26 10:42:18;;;;;;;;;;;;;;;29.11;49.62;97740.97;5105634;28;19925;-74
2023/06/26 10:44:45;;;;;;;;;;;;;;;28.97;52.64;97730.69;5109789;28;19938;-74
2023/06/26 10:47:12;;;;;;;;;;;;;;;29.15;49.31;97720.56;5110291;28;19964;-74
2023/06/26 10:49:39;;;;;;;;;;;;;;;29.51;47.63;97726.94;5106478;28;19931;-74
2023/06/26 10:52:06;;;;;;;;;;;;;;;29.30;49.46;97729.66;5102154;28;19989;-74
2023/06/26 10:54:33;;;;;;;;;;;;;;;29.42;50.57;97737.53;5102637;28;19974;-74
2023/06/26 10:56:59;;;;;;;;;;;;;;;29.11;51.79;97730.75;5105546;28;20277;-74
2023/06/26 10:59:28;;;;;;;;;;;;;;;29.23;50.71;97719.38;5103920;28;20386;-75
2023/06/26 11:01:55;;;;;;;;;;;;;;;29.35;49.59;97723.75;5100748;28;19924;-74
2023/06/26 11:04:36;;;;;;;;;;;;;;;29.40;49.77;97718.66;5100882;28;19928;-76
2023/06/26 11:07:15;;;;;;;;;;;;;;;29.54;47.56;97719.84;5094956;28;19925;-74
2023/06/26 11:09:54;;;;;;;;;;;;;;;29.88;45.26;97713.59;5103662;28;19940;-74
2023/06/26 11:12:35;;;;;;;;;;;;;;;29.99;46.15;97717.13;5104635;28;19931;-74
2023/06/26 11:15:02;;;;;;;;;;;;;;;29.59;47.50;97711.97;5094550;28;19940;-73
2023/06/26 11:17:30;;;;;;;;;;;;;;;30.13;45.00;97707.25;5102134;28;19931;-74
2023/06/26 11:19:56;;;;;;;;;;;;;;;30.13;45.97;97710.03;5101307;28;19923;-73
2023/06/26 11:22:24;;;;;;;;;;;;;;;29.86;47.39;97704.16;5077800;28;19925;-74
2023/06/26 11:24:53;;;;;;;;;;;;;;;29.69;50.75;97705.69;5083134;28;19959;-74
2023/06/26 11:27:23;;;;;;;;;;;;;;;29.71;48.15;97708.06;5076409;28;19956;-73
2023/06/26 11:29:50;;;;;;;;;;;;;;;29.85;46.27;97714.38;5087718;28;19924;-75
2023/06/26 11:32:17;;;;;;;;;;;;;;;29.88;46.30;97707.28;5079618;28;20386;-73
2023/06/26 11:34:44;;;;;;;;;;;;;;;30.07;45.74;97700.59;5073162;28;19935;-74
2023/06/26 11:37:11;;;;;;;;;;;;;;;30.25;44.09;97691.09;5095510;28;19943;-75
2023/06/26 11:39:38;;;;;;;;;;;;;;;30.30;44.90;97690.69;5102574;28;19924;-75
2023/06/26 11:42:05;;;;;;;;;;;;;;;30.31;45.04;97688.72;5104236;28;19956;-74
2023/06/26 11:44:32;;;;;;;;;;;;;;;29.99;47.06;97691.53;5102934;28;19928;-74
2023/06/26 11:46:59;;;;;;;;;;;;;;;30.06;47.27;97694.28;5100292;28;19954;-74
2023/06/26 11:49:29;;;;;;;;;;;;;;;30.30;44.63;97693.44;5100522;28;19925;-74
2023/06/26 11:51:55;;;;;;;;;;;;;;;30.53;44.55;97690.25;5101304;28;19964;-72
2023/06/26 11:54:25;;;;;;;;;;;;;;;30.14;46.45;97673.84;5100577;28;19928;-75
2023/06/26 11:56:57;;;;;;;;;;;;;;;30.27;46.31;97679.69;5091096;28;19934;-73
2023/06/26 11:59:23;;;;;;;;;;;;;;;30.45;45.27;97674.94;5099203;28;19924;-74
2023/06/26 12:01:51;;;;;;;;;;;;;;;30.46;45.65;97662.72;5091738;28;19928;-73
2023/06/26 12:04:19;;;;;;;;;;;;;;;30.61;44.46;97660.72;5100095;28;19974;-74
2023/06/26 12:06:48;;;;;;;;;;;;;;;30.96;44.02;97668.81;5102771;28;19934;-73
2023/06/26 12:09:14;;;;;;;;;;;;;;;30.55;46.31;97674.09;5103583;28;19946;-73
2023/06/26 12:11:42;;;;;;;;;;;;;;;30.49;48.58;97657.19;5101169;28;19924;-73
2023/06/26 12:14:08;;;;;;;;;;;;;;;30.71;48.10;97663.41;5099926;28;19924;-74
2023/06/26 12:16:36;;;;;;;;;;;;;;;30.58;47.07;97661.50;5101157;28;19931;-73
2023/06/26 12:19:02;;;;;;;;;;;;;;;30.64;46.76;97660.69;5103413;28;19938;-73
2023/06/26 12:21:30;;;;;;;;;;;;;;;30.71;46.64;97666.16;5102603;28;19931;-73
2023/06/26 12:24:00;;;;;;;;;;;;;;;30.82;45.94;97655.88;5099284;28;20008;-73
2023/06/26 12:26:28;;;;;;;;;;;;;;;31.21;42.53;97649.34;5100034;28;19960;-73
2023/06/26 12:28:54;;;;;;;;;;;;;;;31.29;43.53;97654.41;5103249;28;19990;-73
2023/06/26 12:31:21;;;;;;;;;;;;;;;30.98;45.30;97653.44;5103293;28;19931;-73
2023/06/26 12:33:48;;;;;;;;;;;;;;;31.14;44.82;97652.16;5099964;28;20001;-73
2023/06/26 12:36:14;;;;;;;;;;;;;;;31.04;46.39;97651.81;5099556;28;20018;-74
2023/06/26 12:38:41;;;;;;;;;;;;;;;31.08;45.28;97648.25;5101792;28;19931;-74
2023/06/26 12:41:14;;;;;;;;;;;;;;;30.93;46.26;97648.31;5102968;28;19931;-74
2023/06/26 12:43:41;;;;;;;;;;;;;;;30.90;45.36;97656.63;5100719;28;19930;-74
2023/06/26 12:46:07;;;;;;;;;;;;;;;30.99;44.40;97655.00;5099463;28;19975;-74
2023/06/26 12:48:37;;;;;;;;;;;;;;;31.08;43.76;97645.50;5099331;28;19931;-73
2023/06/26 12:51:08;;;;;;;;;;;;;;;31.20;43.87;97637.53;5102761;28;19964;-73
2023/06/26 12:53:35;;;;;;;;;;;;;;;30.87;44.89;97630.63;5101279;28;19924;-74
2023/06/26 12:56:01;;;;;;;;;;;;;;;30.87;44.88;97630.63;5099060;28;19932;-74
2023/06/26 12:58:29;;;;;;;;;;;;;;;30.97;43.41;97629.03;5099423;28;19924;-73
2023/06/26 13:00:57;;;;;;;;;;;;;;;31.44;40.58;97633.03;5102560;28;20011;-74
2023/06/26 13:03:23;;;;;;;;;;;;;;;31.52;41.85;97624.31;5102553;28;20399;-74
2023/06/26 13:05:50;;;;;;;;;;;;;;;31.80;40.14;97626.00;5099270;28;19924;-74
2023/06/26 13:08:18;;;;;;;;;;;;;;;31.65;41.93;97624.59;5099291;28;19960;-74
2023/06/26 13:10:45;;;;;;;;;;;;;;;31.68;40.61;97623.75;5102079;28;19970;-74